Time;durP1;ratioP1;P1;durP2;ratioP2;P2;SDS_P1;SDS_P2;PMS_P1;PMS_P2;Temp;Humidity;BMP_temperature;BMP_pressure;BME280_temperature;BME280_humidity;BME280_pressure;Samples;Min_cycle;Max_cycle;Signal;HPM_P1;HPM_P2
2023/10/16 00:01:04;;;;;;;2.93;2.63;;;17.80;54.20;;;;;;4974111;28;20434;-78
2023/10/16 00:03:32;;;;;;;2.77;2.50;;;17.80;54.10;;;;;;4973966;28;20466;-78
2023/10/16 00:06:05;;;;;;;3.00;2.20;;;17.80;54.00;;;;;;4973777;28;20556;-78
2023/10/16 00:08:34;;;;;;;4.53;2.83;;;17.80;54.10;;;;;;4976999;28;20480;-78
2023/10/16 00:11:04;;;;;;;3.43;2.30;;;17.80;54.10;;;;;;4968155;28;20450;-77
2023/10/16 00:13:35;;;;;;;3.67;2.50;;;17.80;54.10;;;;;;4968512;28;20454;-77
2023/10/16 00:16:03;;;;;;;3.20;2.57;;;17.80;54.20;;;;;;4972734;28;20501;-76
2023/10/16 00:18:33;;;;;;;2.70;2.50;;;17.70;54.10;;;;;;4971129;28;20437;-79
2023/10/16 00:21:05;;;;;;;4.13;2.20;;;17.80;54.20;;;;;;4976175;28;20466;-80
2023/10/16 00:23:38;;;;;;;2.57;2.30;;;17.80;54.10;;;;;;4985161;28;20470;-79
2023/10/16 00:26:06;;;;;;;2.50;2.00;;;17.70;54.00;;;;;;4982458;28;20516;-80
2023/10/16 00:28:34;;;;;;;2.80;2.20;;;17.80;54.10;;;;;;4983659;28;20469;-79
2023/10/16 00:31:03;;;;;;;4.30;1.90;;;17.70;53.90;;;;;;4984205;28;20449;-81
2023/10/16 00:33:33;;;;;;;4.57;2.00;;;17.70;54.00;;;;;;4986880;28;20466;-80
2023/10/16 00:36:03;;;;;;;2.20;1.70;;;17.70;54.00;;;;;;4981622;28;20529;-80
2023/10/16 00:38:37;;;;;;;2.73;2.20;;;17.70;54.00;;;;;;4974513;28;20446;-79
2023/10/16 00:41:16;;;;;;;2.30;2.10;;;17.70;53.90;;;;;;4977219;28;20505;-79
2023/10/16 00:43:45;;;;;;;4.70;2.20;;;17.70;54.10;;;;;;4975910;28;20509;-78
2023/10/16 00:46:19;;;;;;;4.50;2.30;;;17.70;54.20;;;;;;4974790;28;20489;-79
2023/10/16 00:48:47;;;;;;;1.90;1.53;;;17.70;54.10;;;;;;4982138;28;20434;-80
2023/10/16 00:51:17;;;;;;;2.90;1.93;;;17.70;54.10;;;;;;4974624;28;20491;-79
2023/10/16 00:54:01;;;;;;;2.13;1.83;;;17.70;54.10;;;;;;4974729;28;20445;-79
2023/10/16 00:56:29;;;;;;;4.03;2.07;;;17.70;54.00;;;;;;4982039;28;20478;-80
2023/10/16 00:58:57;;;;;;;2.43;2.10;;;17.70;54.00;;;;;;4987331;28;20481;-80
2023/10/16 01:01:26;;;;;;;2.70;2.00;;;17.70;54.20;;;;;;4976288;28;20549;-79
2023/10/16 01:03:57;;;;;;;3.27;2.40;;;17.70;54.20;;;;;;4980589;28;20483;-79
2023/10/16 01:06:36;;;;;;;3.27;1.80;;;17.70;54.10;;;;;;4986643;28;20474;-79
2023/10/16 01:09:09;;;;;;;2.03;1.57;;;17.70;54.10;;;;;;4987173;28;20882;-80
2023/10/16 01:11:38;;;;;;;1.97;1.80;;;17.70;54.20;;;;;;4982019;28;20487;-78
2023/10/16 01:14:06;;;;;;;3.90;1.87;;;17.70;54.30;;;;;;4975973;28;20465;-79
2023/10/16 01:16:34;;;;;;;4.00;2.00;;;17.60;54.20;;;;;;4976670;28;20473;-78
2023/10/16 01:19:06;;;;;;;2.53;2.00;;;17.70;54.20;;;;;;4977636;28;20460;-79
2023/10/16 01:21:35;;;;;;;1.53;1.43;;;17.60;54.20;;;;;;4977884;28;20988;-79
2023/10/16 01:24:12;;;;;;;4.57;1.77;;;17.70;54.20;;;;;;4979702;28;20539;-79
2023/10/16 01:26:41;;;;;;;2.13;1.90;;;17.60;54.20;;;;;;4988118;28;20472;-79
2023/10/16 01:29:09;;;;;;;1.83;1.63;;;17.60;54.30;;;;;;4985813;28;20454;-80
2023/10/16 01:31:38;;;;;;;2.50;2.10;;;17.70;54.40;;;;;;4979241;28;20451;-79
2023/10/16 01:34:10;;;;;;;2.43;1.70;;;17.60;54.20;;;;;;4970146;28;20475;-79
2023/10/16 01:36:45;;;;;;;2.53;1.63;;;17.60;54.40;;;;;;4981895;28;20537;-79
2023/10/16 01:41:57;;;;;;;4.30;1.90;;;17.70;54.30;;;;;;4978793;28;20450;-80
2023/10/16 01:44:25;;;;;;;1.67;1.57;;;17.70;54.40;;;;;;4986068;28;20473;-80
2023/10/16 01:46:53;;;;;;;1.57;1.47;;;17.60;54.40;;;;;;4974247;28;20821;-79
2023/10/16 01:49:24;;;;;;;1.90;1.63;;;17.70;54.30;;;;;;4975061;28;20517;-79
2023/10/16 01:51:53;;;;;;;2.10;1.80;;;17.60;54.40;;;;;;4970081;28;20455;-79
2023/10/16 01:54:22;;;;;;;2.23;2.00;;;17.70;54.50;;;;;;4967099;28;20430;-79
2023/10/16 01:56:51;;;;;;;2.90;1.90;;;17.70;54.40;;;;;;4975379;28;20486;-81
2023/10/16 01:59:21;;;;;;;2.63;1.60;;;17.70;54.50;;;;;;4986127;28;20439;-79
2023/10/16 02:01:49;;;;;;;2.70;1.80;;;17.60;54.40;;;;;;4986430;28;20446;-77
2023/10/16 02:04:19;;;;;;;2.03;1.67;;;17.70;54.50;;;;;;4976814;28;20501;-79
2023/10/16 02:06:49;;;;;;;2.10;1.50;;;17.60;54.40;;;;;;4985592;28;20981;-79
2023/10/16 02:09:23;;;;;;;2.40;1.70;;;17.60;54.50;;;;;;4970412;28;20443;-79
2023/10/16 02:11:53;;;;;;;1.87;1.77;;;17.60;54.50;;;;;;4987847;28;20464;-79
2023/10/16 02:14:21;;;;;;;2.93;1.93;;;17.60;54.40;;;;;;4987610;28;20535;-80
2023/10/16 02:16:51;;;;;;;2.27;1.43;;;17.60;54.50;;;;;;4993242;28;20456;-79
2023/10/16 02:19:20;;;;;;;2.57;1.63;;;17.60;54.50;;;;;;4985950;28;20442;-79
2023/10/16 02:21:50;;;;;;;1.47;1.37;;;17.70;54.60;;;;;;4970867;28;20470;-79
2023/10/16 02:24:18;;;;;;;1.50;1.40;;;17.60;54.60;;;;;;4986457;28;20504;-80
2023/10/16 02:26:55;;;;;;;2.77;1.90;;;17.60;54.60;;;;;;4979963;28;20502;-80
2023/10/16 02:29:28;;;;;;;1.63;1.40;;;17.70;54.60;;;;;;4981352;28;20505;-79
2023/10/16 02:31:58;;;;;;;2.60;1.80;;;17.60;54.50;;;;;;4986899;28;20457;-80
2023/10/16 02:34:26;;;;;;;1.53;1.43;;;17.60;54.50;;;;;;4989420;28;20474;-78
2023/10/16 02:36:55;;;;;;;1.70;1.60;;;17.60;54.60;;;;;;4977523;28;20477;-78
2023/10/16 02:39:36;;;;;;;2.20;1.77;;;17.60;54.70;;;;;;4973926;28;20455;-80
2023/10/16 02:42:08;;;;;;;2.50;1.43;;;17.70;54.50;;;;;;4976609;28;20450;-78
2023/10/16 02:44:42;;;;;;;1.90;1.80;;;17.60;54.60;;;;;;4973332;28;20482;-79
2023/10/16 02:47:13;;;;;;;1.93;1.77;;;17.60;54.70;;;;;;4982038;28;20450;-79
2023/10/16 02:49:47;;;;;;;2.83;1.57;;;17.70;54.60;;;;;;4976965;28;20452;-79
2023/10/16 02:52:17;;;;;;;2.30;1.90;;;17.60;54.60;;;;;;4984003;28;20458;-79
2023/10/16 02:54:46;;;;;;;2.77;1.73;;;17.60;54.70;;;;;;4985192;28;20446;-79
2023/10/16 02:57:15;;;;;;;2.30;1.50;;;17.60;54.70;;;;;;4983740;28;20487;-80
2023/10/16 02:59:45;;;;;;;2.00;1.80;;;17.60;54.70;;;;;;4969465;28;20447;-79
2023/10/16 03:02:17;;;;;;;2.93;1.83;;;17.60;54.60;;;;;;4975437;28;20454;-80
2023/10/16 03:04:51;;;;;;;3.07;1.73;;;17.60;54.60;;;;;;4975855;28;20502;-80
2023/10/16 03:07:21;;;;;;;2.57;2.27;;;17.60;54.70;;;;;;4975684;28;20448;-80
2023/10/16 03:09:51;;;;;;;1.73;1.63;;;17.60;54.80;;;;;;4970806;28;20453;-80
2023/10/16 03:12:20;;;;;;;1.70;1.60;;;17.60;54.70;;;;;;4974957;28;20604;-79
2023/10/16 03:14:56;;;;;;;1.97;1.50;;;17.60;54.70;;;;;;4986899;28;20459;-79
2023/10/16 03:17:34;;;;;;;2.70;1.83;;;17.60;54.60;;;;;;4984872;28;20446;-80
2023/10/16 03:20:08;;;;;;;2.00;1.80;;;17.60;54.70;;;;;;4965503;28;20514;-79
2023/10/16 03:22:37;;;;;;;1.60;1.50;;;17.60;54.60;;;;;;4980866;28;20473;-79
2023/10/16 03:25:24;;;;;;;3.50;1.70;;;17.60;54.80;;;;;;4982852;28;20516;-80
2023/10/16 03:27:55;;;;;;;2.40;2.07;;;17.50;54.80;;;;;;4978527;28;20478;-79
2023/10/16 03:30:27;;;;;;;2.43;2.23;;;17.50;54.80;;;;;;4967271;28;20470;-81
2023/10/16 03:32:58;;;;;;;3.47;2.53;;;17.50;54.90;;;;;;4987154;28;20463;-80
2023/10/16 03:35:29;;;;;;;3.80;3.13;;;17.60;55.00;;;;;;4988598;28;20450;-80
2023/10/16 03:37:58;;;;;;;6.90;3.37;;;17.50;54.90;;;;;;4982561;28;20442;-80
2023/10/16 03:40:27;;;;;;;4.77;3.70;;;17.60;55.00;;;;;;4982714;28;20473;-80
2023/10/16 03:42:55;;;;;;;5.93;3.70;;;17.50;54.90;;;;;;4986252;28;20440;-80
2023/10/16 03:45:24;;;;;;;7.67;4.33;;;17.60;55.00;;;;;;4976251;28;20479;-79
2023/10/16 03:47:57;;;;;;;6.13;3.70;;;17.60;54.90;;;;;;4980761;28;20494;-79
2023/10/16 03:50:25;;;;;;;8.27;4.50;;;17.50;54.90;;;;;;4984499;28;20458;-79
2023/10/16 03:52:55;;;;;;;6.90;3.97;;;17.50;54.90;;;;;;4982909;28;20449;-80
2023/10/16 03:55:26;;;;;;;6.23;4.50;;;17.60;55.00;;;;;;4981846;28;20473;-79
2023/10/16 03:57:55;;;;;;;10.10;4.63;;;17.50;54.90;;;;;;4985609;28;20458;-80
2023/10/16 04:00:26;;;;;;;4.40;4.00;;;17.50;54.90;;;;;;4976801;28;20536;-79
2023/10/16 04:02:59;;;;;;;6.70;4.70;;;17.60;55.00;;;;;;4973965;28;20450;-80
2023/10/16 04:05:33;;;;;;;5.30;4.40;;;17.60;55.00;;;;;;4981344;28;20493;-79
2023/10/16 04:08:02;;;;;;;7.13;5.20;;;17.60;55.00;;;;;;4983553;28;20442;-81
2023/10/16 04:10:30;;;;;;;7.70;4.77;;;17.60;55.00;;;;;;4987197;28;20446;-80
2023/10/16 04:12:58;;;;;;;7.60;4.40;;;17.60;55.10;;;;;;4980775;28;20541;-78
2023/10/16 04:15:58;;;;;;;6.83;4.57;;;17.60;55.20;;;;;;4971195;28;20479;-78
2023/10/16 04:18:32;;;;;;;7.93;4.70;;;17.60;55.10;;;;;;4978196;28;20477;-79
2023/10/16 04:23:53;;;;;;;6.37;4.90;;;17.60;55.20;;;;;;4980751;28;20470;-79
2023/10/16 04:26:34;;;;;;;6.20;4.90;;;17.60;55.10;;;;;;4989175;28;20513;-79
2023/10/16 04:31:56;;;;;;;6.10;5.10;;;17.60;55.10;;;;;;4985801;28;20449;-81
2023/10/16 04:34:31;;;;;;;6.40;4.50;;;17.50;55.10;;;;;;4983597;28;20449;-80
2023/10/16 04:43:03;;;;;;;5.73;4.50;;;17.60;55.20;;;;;;4914433;29;20452;-81
2023/10/16 04:45:59;;;;;;;6.13;4.80;;;17.50;55.10;;;;;;4921611;29;20488;-80
2023/10/16 04:51:22;;;;;;;5.87;4.50;;;17.50;55.10;;;;;;4984710;28;20453;-79
2023/10/16 04:54:27;;;;;;;8.20;4.80;;;17.50;55.20;;;;;;4978328;28;20537;-79
2023/10/16 04:57:37;;;;;;;6.93;4.70;;;17.50;55.40;;;;;;4982510;28;20478;-79
2023/10/16 05:00:12;;;;;;;5.60;4.10;;;17.50;55.20;;;;;;4988317;28;20564;-79
2023/10/16 05:02:52;;;;;;;5.27;4.33;;;17.50;55.40;;;;;;4983783;28;20454;-81
2023/10/16 05:05:56;;;;;;;5.20;4.00;;;17.50;55.30;;;;;;4985451;28;20498;-78
2023/10/16 05:08:59;;;;;;;4.77;4.10;;;17.50;55.40;;;;;;4982691;28;20430;-82
2023/10/16 05:14:50;;;;;;;4.80;4.30;;;17.50;55.60;;;;;;4985296;28;20447;-79
2023/10/16 05:17:21;;;;;;;6.57;4.50;;;17.50;55.50;;;;;;4991516;28;20457;-79
2023/10/16 05:19:54;;;;;;;4.07;3.67;;;17.50;55.50;;;;;;4978205;28;20469;-81
2023/10/16 06:15:21;;;;;;;5.20;3.60;;;17.40;55.80;;;;;;4996256;28;20441;-76
2023/10/16 06:17:51;;;;;;;4.47;3.50;;;17.40;55.80;;;;;;4986678;28;20541;-76
2023/10/16 06:20:21;;;;;;;4.77;3.80;;;17.40;55.80;;;;;;4974852;28;20509;-77
2023/10/16 06:22:51;;;;;;;4.40;3.87;;;17.50;55.90;;;;;;4974578;28;20442;-78
2023/10/16 06:25:28;;;;;;;7.10;3.40;;;17.50;55.80;;;;;;4974960;28;20481;-77
2023/10/16 06:27:56;;;;;;;4.80;3.50;;;17.50;55.90;;;;;;4974634;28;20533;-76
2023/10/16 06:30:27;;;;;;;3.97;3.57;;;17.50;55.90;;;;;;4989782;28;20468;-76
2023/10/16 06:32:55;;;;;;;3.37;3.07;;;17.50;55.90;;;;;;4994315;28;20452;-77
2023/10/16 06:35:25;;;;;;;4.73;3.30;;;17.50;56.00;;;;;;4993526;28;20473;-76
2023/10/16 06:37:53;;;;;;;3.20;2.87;;;17.50;55.80;;;;;;4990478;28;20458;-77
2023/10/16 06:40:25;;;;;;;5.90;3.40;;;17.50;55.90;;;;;;4974407;28;20478;-77
2023/10/16 06:43:09;;;;;;;3.53;2.93;;;17.60;56.00;;;;;;4984941;28;20442;-75
2023/10/16 06:45:41;;;;;;;4.10;3.27;;;17.60;56.00;;;;;;4993819;28;20499;-77
2023/10/16 06:48:14;;;;;;;6.83;3.90;;;17.60;55.80;;;;;;4993823;28;20433;-74
2023/10/16 06:50:46;;;;;;;3.30;2.93;;;17.60;55.90;;;;;;4976077;28;20438;-76
2023/10/16 06:53:14;;;;;;;3.07;2.77;;;17.70;55.80;;;;;;4982142;28;20437;-77
2023/10/16 06:55:41;;;;;;;4.70;3.37;;;17.70;55.80;;;;;;4974353;28;20509;-77
2023/10/16 06:58:10;;;;;;;3.00;2.80;;;17.70;55.70;;;;;;4973978;28;20465;-77
2023/10/16 07:00:38;;;;;;;3.37;3.07;;;17.70;55.80;;;;;;4973046;28;20544;-77
2023/10/16 07:03:12;;;;;;;3.93;3.43;;;17.70;55.80;;;;;;4974237;28;20439;-77
2023/10/16 07:05:44;;;;;;;3.30;3.00;;;17.70;55.70;;;;;;4976573;28;20576;-77
2023/10/16 07:08:16;;;;;;;3.70;3.23;;;17.70;55.80;;;;;;4972838;28;20461;-76
2023/10/16 07:10:49;;;;;;;3.33;3.03;;;17.70;55.80;;;;;;4971771;28;20510;-76
2023/10/16 07:13:26;;;;;;;4.90;3.33;;;17.70;55.80;;;;;;4975436;28;20430;-75
2023/10/16 07:15:57;;;;;;;3.20;2.90;;;17.80;55.90;;;;;;4969339;28;20471;-75
2023/10/16 07:18:27;;;;;;;3.57;3.13;;;17.80;55.80;;;;;;4972042;28;20450;-75
2023/10/16 07:21:07;;;;;;;4.13;3.37;;;17.80;55.90;;;;;;4969418;28;20471;-75
2023/10/16 07:23:36;;;;;;;3.40;3.07;;;17.90;56.00;;;;;;4968224;28;20430;-76
2023/10/16 07:26:05;;;;;;;4.10;2.93;;;17.90;56.00;;;;;;4974946;28;20502;-77
2023/10/16 07:28:33;;;;;;;3.37;3.07;;;17.90;55.90;;;;;;4966739;28;20534;-76
2023/10/16 07:31:02;;;;;;;3.90;3.00;;;18.00;55.90;;;;;;4969168;28;20458;-77
2023/10/16 07:33:32;;;;;;;2.93;2.67;;;18.10;55.80;;;;;;4975417;28;20457;-77
2023/10/16 07:36:00;;;;;;;3.73;3.30;;;18.10;55.70;;;;;;4974983;28;20497;-77
2023/10/16 07:38:31;;;;;;;4.03;3.43;;;18.20;55.70;;;;;;4962946;28;20832;-76
2023/10/16 07:41:00;;;;;;;3.13;2.87;;;18.20;55.70;;;;;;4976773;28;20446;-77
2023/10/16 07:43:32;;;;;;;3.40;2.97;;;18.20;55.70;;;;;;4967028;28;20490;-77
2023/10/16 07:46:16;;;;;;;4.43;3.10;;;18.20;55.80;;;;;;4961758;28;20504;-77
2023/10/16 07:48:46;;;;;;;3.47;3.07;;;18.20;55.90;;;;;;4967783;28;20820;-78
2023/10/16 07:51:16;;;;;;;3.03;2.73;;;18.20;55.80;;;;;;4955263;28;20469;-78
2023/10/16 07:53:44;;;;;;;4.33;3.27;;;18.30;56.00;;;;;;4970486;28;20450;-76
2023/10/16 07:56:25;;;;;;;3.50;3.00;;;18.30;55.90;;;;;;4969622;28;20564;-77
2023/10/16 07:59:07;;;;;;;3.47;2.83;;;18.30;56.10;;;;;;4970886;28;20453;-77
2023/10/16 08:01:48;;;;;;;3.20;2.90;;;18.40;56.20;;;;;;4970618;28;20453;-77
2023/10/16 08:04:27;;;;;;;4.03;2.53;;;18.50;56.20;;;;;;4972516;28;20452;-77
2023/10/16 08:06:57;;;;;;;3.20;2.90;;;18.50;56.20;;;;;;4972514;28;20509;-78
2023/10/16 08:09:48;;;;;;;3.20;2.90;;;18.60;56.30;;;;;;4972441;28;20473;-77
2023/10/16 08:12:18;;;;;;;2.83;2.60;;;18.70;56.50;;;;;;4971773;28;20449;-75
2023/10/16 08:14:47;;;;;;;2.60;2.37;;;18.90;56.50;;;;;;4973377;28;20501;-77
2023/10/16 08:17:16;;;;;;;3.13;2.67;;;19.00;56.40;;;;;;4972060;28;20470;-77
2023/10/16 08:19:50;;;;;;;3.40;3.10;;;19.10;56.10;;;;;;4971810;28;20457;-78
2023/10/16 08:22:18;;;;;;;2.63;2.43;;;19.10;56.20;;;;;;4962829;28;20450;-79
2023/10/16 08:24:59;;;;;;;2.23;2.13;;;19.20;56.30;;;;;;4990204;28;20447;-78
2023/10/16 08:30:18;;;;;;;2.73;2.47;;;19.20;56.30;;;;;;4973463;28;20464;-80
2023/10/16 08:35:38;;;;;;;2.50;2.20;;;19.40;56.50;;;;;;4967545;28;20466;-79
2023/10/16 08:38:20;;;;;;;3.07;2.30;;;19.50;56.40;;;;;;4974074;28;20482;-79
2023/10/16 08:40:57;;;;;;;2.40;2.20;;;19.60;56.20;;;;;;4981552;28;20454;-78
2023/10/16 08:43:39;;;;;;;2.73;2.17;;;19.60;56.00;;;;;;4975918;28;20442;-78
2023/10/16 08:46:10;;;;;;;2.40;2.20;;;19.70;56.00;;;;;;4977756;28;20502;-79
2023/10/16 08:48:40;;;;;;;2.60;2.40;;;19.70;56.10;;;;;;4975578;28;20453;-78
2023/10/16 08:51:10;;;;;;;2.60;1.93;;;19.80;56.30;;;;;;4976261;28;20434;-77
2023/10/16 08:53:37;;;;;;;2.20;2.07;;;19.90;56.30;;;;;;4980449;28;20485;-77
2023/10/16 08:56:08;;;;;;;2.20;2.10;;;20.10;56.60;;;;;;4976621;28;20473;-77
2023/10/16 08:58:39;;;;;;;3.70;2.30;;;20.30;56.80;;;;;;4971600;28;20457;-76
2023/10/16 09:01:08;;;;;;;2.17;1.97;;;20.60;56.70;;;;;;4976948;28;20468;-78
2023/10/16 09:03:44;;;;;;;2.70;2.37;;;20.90;56.70;;;;;;4974082;28;20472;-79
2023/10/16 09:06:22;;;;;;;2.27;1.90;;;21.30;56.50;;;;;;4975593;28;20484;-80
2023/10/16 09:08:50;;;;;;;2.87;2.60;;;21.60;56.00;;;;;;4977867;28;20468;-78
2023/10/16 09:11:19;;;;;;;2.50;2.17;;;21.80;55.60;;;;;;4985195;28;20446;-80
2023/10/16 09:13:50;;;;;;;2.67;1.70;;;21.80;55.20;;;;;;4983322;28;20476;-79
2023/10/16 09:16:21;;;;;;;1.90;1.80;;;21.80;55.30;;;;;;4984397;28;20462;-80
2023/10/16 09:18:49;;;;;;;2.17;2.07;;;21.80;55.30;;;;;;4985161;28;20446;-80
2023/10/16 09:21:24;;;;;;;1.93;1.73;;;21.80;55.40;;;;;;4978222;28;20469;-77
2023/10/16 09:23:53;;;;;;;3.33;1.97;;;21.80;55.40;;;;;;4976852;28;20496;-81
2023/10/16 09:26:23;;;;;;;3.30;2.40;;;21.80;55.40;;;;;;4980497;28;20462;-81
2023/10/16 09:28:54;;;;;;;2.10;2.00;;;21.70;55.30;;;;;;4984692;28;20469;-81
2023/10/16 09:31:30;;;;;;;5.17;2.17;;;21.70;55.50;;;;;;4988725;28;20461;-79
2023/10/16 09:33:58;;;;;;;2.63;2.40;;;21.60;55.70;;;;;;4980314;28;20446;-79
2023/10/16 09:36:29;;;;;;;3.47;2.07;;;21.50;55.70;;;;;;4977692;28;20599;-80
2023/10/16 09:39:01;;;;;;;2.63;2.43;;;21.40;55.80;;;;;;4978515;28;20446;-79
2023/10/16 09:41:42;;;;;;;2.07;1.97;;;21.40;56.20;;;;;;4974310;28;20480;-80
2023/10/16 09:44:22;;;;;;;2.37;1.87;;;21.30;56.10;;;;;;4975754;28;20480;-79
2023/10/16 09:46:53;;;;;;;2.43;2.20;;;21.30;56.10;;;;;;4985473;28;20477;-79
2023/10/16 09:49:21;;;;;;;2.90;2.00;;;21.30;56.20;;;;;;4983910;28;20532;-79
2023/10/16 09:51:57;;;;;;;2.77;2.00;;;21.40;56.30;;;;;;4977022;28;20465;-79
2023/10/16 09:54:35;;;;;;;2.60;2.00;;;21.60;56.20;;;;;;4984215;28;20457;-79
2023/10/16 09:57:06;;;;;;;3.00;1.73;;;21.80;56.20;;;;;;4976406;28;20458;-79
2023/10/16 09:59:38;;;;;;;1.87;1.77;;;21.90;55.90;;;;;;4977539;28;20458;-80
2023/10/16 10:02:08;;;;;;;2.30;1.63;;;22.10;55.70;;;;;;4985742;28;20473;-80
2023/10/16 10:04:39;;;;;;;1.97;1.87;;;22.30;55.70;;;;;;4976598;28;20508;-78
2023/10/16 10:07:18;;;;;;;2.03;1.93;;;22.50;55.50;;;;;;4978778;28;20535;-79
2023/10/16 10:09:47;;;;;;;1.90;1.80;;;22.70;55.50;;;;;;4979271;28;20525;-80
2023/10/16 10:12:23;;;;;;;2.23;2.13;;;23.00;55.50;;;;;;4984895;28;20433;-78
2023/10/16 10:15:03;;;;;;;2.50;1.80;;;23.40;55.40;;;;;;4980249;28;20448;-79
2023/10/16 10:17:31;;;;;;;2.20;1.83;;;23.70;55.20;;;;;;4976357;28;20424;-79
2023/10/16 10:20:08;;;;;;;2.00;1.90;;;24.00;55.10;;;;;;4974657;28;20446;-79
2023/10/16 10:22:39;;;;;;;1.70;1.60;;;24.20;54.50;;;;;;4973899;28;20450;-79
2023/10/16 10:25:16;;;;;;;2.93;2.07;;;24.40;54.40;;;;;;4983995;28;20496;-78
2023/10/16 10:27:49;;;;;;;1.67;1.50;;;24.60;54.30;;;;;;4975703;28;20476;-77
2023/10/16 10:30:25;;;;;;;1.73;1.63;;;24.80;54.40;;;;;;4978402;28;20509;-78
2023/10/16 10:32:55;;;;;;;2.10;1.90;;;25.20;54.20;;;;;;4979173;28;20424;-79
2023/10/16 10:35:26;;;;;;;1.70;1.60;;;25.50;54.20;;;;;;4965865;28;20460;-78
2023/10/16 10:38:17;;;;;;;3.63;1.90;;;25.90;53.80;;;;;;4977524;28;20941;-78
2023/10/16 10:41:12;;;;;;;3.33;1.80;;;26.30;53.40;;;;;;4967186;28;20425;-79
2023/10/16 10:43:44;;;;;;;2.17;1.70;;;26.70;52.90;;;;;;4962142;28;20433;-78
2023/10/16 10:46:13;;;;;;;2.07;1.97;;;27.10;52.30;;;;;;4978846;28;20618;-79
2023/10/16 10:48:42;;;;;;;2.43;1.73;;;27.40;51.60;;;;;;4975041;28;20440;-78
2023/10/16 10:51:14;;;;;;;2.50;1.50;;;27.50;51.30;;;;;;4978298;28;20406;-78
2023/10/16 10:53:56;;;;;;;2.17;1.93;;;27.70;51.50;;;;;;4977537;28;20511;-78
2023/10/16 10:56:30;;;;;;;2.20;2.07;;;27.80;50.60;;;;;;4978138;28;20496;-78
2023/10/16 10:59:04;;;;;;;3.13;2.37;;;27.60;50.50;;;;;;4975333;28;20590;-79
2023/10/16 11:01:34;;;;;;;2.60;2.40;;;27.50;50.70;;;;;;4974663;28;20447;-78
2023/10/16 11:04:09;;;;;;;2.80;2.60;;;27.50;50.90;;;;;;4976848;28;20546;-78
2023/10/16 11:06:42;;;;;;;3.63;2.90;;;28.10;51.50;;;;;;4973601;28;20516;-78
2023/10/16 11:09:12;;;;;;;2.90;2.70;;;29.10;50.30;;;;;;4981840;28;20470;-79
2023/10/16 11:11:40;;;;;;;3.13;2.93;;;29.00;47.90;;;;;;4978057;28;20442;-78
2023/10/16 11:14:08;;;;;;;3.13;2.93;;;28.60;48.10;;;;;;4976280;28;20417;-78
2023/10/16 11:16:44;;;;;;;4.10;3.80;;;28.20;48.70;;;;;;4973664;28;20564;-79
2023/10/16 11:19:12;;;;;;;4.10;3.73;;;27.70;49.20;;;;;;4971992;28;20487;-79
2023/10/16 11:21:47;;;;;;;3.70;3.40;;;27.40;49.80;;;;;;4973641;28;20409;-78
2023/10/16 11:24:16;;;;;;;6.03;3.93;;;27.20;50.30;;;;;;4974562;28;20443;-78
2023/10/16 11:26:45;;;;;;;4.77;4.13;;;27.30;51.10;;;;;;4977270;28;20560;-79
2023/10/16 11:29:13;;;;;;;4.07;3.70;;;28.10;50.40;;;;;;4979412;28;20517;-78
2023/10/16 11:31:41;;;;;;;4.10;3.80;;;28.90;49.00;;;;;;4977716;28;20463;-78
2023/10/16 11:34:14;;;;;;;4.80;4.33;;;28.60;47.80;;;;;;4972154;28;20442;-76
2023/10/16 11:36:42;;;;;;;4.10;3.80;;;28.10;48.10;;;;;;4977528;28;20507;-78
2023/10/16 11:39:19;;;;;;;3.67;3.43;;;27.60;49.00;;;;;;4975691;28;20413;-78
2023/10/16 11:41:49;;;;;;;6.73;3.97;;;27.20;49.50;;;;;;4978181;28;20512;-80
2023/10/16 11:44:19;;;;;;;4.37;3.97;;;26.80;50.10;;;;;;4971696;28;20519;-78
2023/10/16 11:46:51;;;;;;;4.73;4.00;;;26.60;50.70;;;;;;4976884;28;20523;-80
2023/10/16 11:49:29;;;;;;;4.50;4.10;;;26.30;51.10;;;;;;4976676;28;20459;-79
2023/10/16 11:52:08;;;;;;;4.30;3.90;;;26.10;51.60;;;;;;4973829;28;20453;-80
2023/10/16 11:54:40;;;;;;;7.53;4.70;;;25.90;52.10;;;;;;4975893;28;20411;-79
2023/10/16 11:57:13;;;;;;;4.47;4.13;;;25.70;52.40;;;;;;4978889;28;20426;-78
2023/10/16 11:59:41;;;;;;;8.03;4.77;;;25.70;52.60;;;;;;4977449;28;20413;-78
2023/10/16 12:02:12;;;;;;;5.43;4.60;;;25.80;54.00;;;;;;4982455;28;20454;-78
2023/10/16 12:04:41;;;;;;;4.97;4.07;;;26.10;52.40;;;;;;4981556;28;20409;-78
2023/10/16 12:07:09;;;;;;;4.77;4.20;;;26.20;51.90;;;;;;4982914;28;20454;-78
2023/10/16 12:09:42;;;;;;;6.00;4.80;;;26.10;51.70;;;;;;4991225;28;20446;-77
2023/10/16 12:12:19;;;;;;;4.50;4.10;;;26.00;52.00;;;;;;4978603;28;20413;-79
2023/10/16 12:14:48;;;;;;;6.70;4.30;;;26.00;52.30;;;;;;4985167;28;20393;-79
2023/10/16 12:17:19;;;;;;;6.77;4.83;;;26.20;52.10;;;;;;4978949;28;20419;-79
2023/10/16 12:19:47;;;;;;;4.80;4.27;;;27.50;52.80;;;;;;4987580;28;20446;-79
2023/10/16 12:22:16;;;;;;;4.73;4.30;;;28.80;50.20;;;;;;4988403;28;20501;-79
2023/10/16 12:24:45;;;;;;;6.40;4.43;;;29.80;46.70;;;;;;4985861;28;20449;-78
2023/10/16 12:27:15;;;;;;;5.73;4.43;;;29.40;45.60;;;;;;4985592;28;20438;-79
2023/10/16 12:29:44;;;;;;;4.53;4.10;;;29.00;46.20;;;;;;4985744;28;20444;-79
2023/10/16 12:32:12;;;;;;;7.37;4.80;;;28.40;46.80;;;;;;4988312;28;20461;-80
2023/10/16 12:34:41;;;;;;;5.23;4.60;;;27.90;47.60;;;;;;4987918;28;20430;-79
2023/10/16 12:37:11;;;;;;;4.90;4.40;;;27.50;48.50;;;;;;4987954;28;20821;-78
2023/10/16 12:39:46;;;;;;;4.97;4.50;;;27.20;49.00;;;;;;4986400;28;20472;-78
2023/10/16 12:42:18;;;;;;;4.73;4.33;;;26.80;49.50;;;;;;4985977;28;20537;-78
2023/10/16 12:44:47;;;;;;;5.40;4.80;;;26.50;50.10;;;;;;4980999;28;20450;-77
2023/10/16 12:47:15;;;;;;;5.20;4.70;;;26.20;50.80;;;;;;4984460;28;20415;-78
2023/10/16 12:50:04;;;;;;;4.90;4.40;;;25.90;51.10;;;;;;4982032;28;20447;-77
2023/10/16 12:52:33;;;;;;;4.40;4.10;;;25.70;51.70;;;;;;4984563;28;20456;-78
2023/10/16 12:55:01;;;;;;;5.70;4.63;;;25.60;52.20;;;;;;4978641;28;20509;-78
2023/10/16 12:57:31;;;;;;;5.77;4.53;;;25.50;52.30;;;;;;4988742;28;20816;-79
2023/10/16 12:59:59;;;;;;;5.00;4.50;;;25.40;52.40;;;;;;4988214;28;20473;-78
2023/10/16 13:02:27;;;;;;;5.30;4.30;;;25.20;52.80;;;;;;4989437;28;20427;-78
2023/10/16 13:04:57;;;;;;;6.67;4.87;;;25.20;53.00;;;;;;4980438;28;20964;-78
2023/10/16 13:07:27;;;;;;;4.43;4.03;;;25.20;53.40;;;;;;4984319;28;20452;-78
2023/10/16 13:09:58;;;;;;;6.03;4.53;;;25.20;53.10;;;;;;4979764;28;20606;-78
2023/10/16 13:12:26;;;;;;;5.57;4.80;;;25.30;53.20;;;;;;4979596;28;20430;-78
2023/10/16 13:14:58;;;;;;;4.87;4.37;;;25.50;53.00;;;;;;4978095;28;20445;-78
2023/10/16 13:17:26;;;;;;;5.30;4.77;;;25.90;53.70;;;;;;4980891;28;20517;-78
2023/10/16 13:19:54;;;;;;;4.77;4.00;;;26.70;52.50;;;;;;4979742;28;20935;-78
2023/10/16 13:22:22;;;;;;;4.67;4.30;;;27.50;50.70;;;;;;4977243;28;20548;-78
2023/10/16 13:24:54;;;;;;;5.23;4.40;;;28.00;49.20;;;;;;4973707;28;20485;-78
2023/10/16 13:27:22;;;;;;;4.70;4.30;;;28.10;48.50;;;;;;4988958;28;20428;-79
2023/10/16 13:29:51;;;;;;;4.30;3.97;;;28.30;48.50;;;;;;4985508;28;20465;-77
2023/10/16 13:32:21;;;;;;;5.00;4.07;;;28.50;48.10;;;;;;4976408;28;20457;-77
2023/10/16 13:34:50;;;;;;;4.20;3.80;;;28.70;47.80;;;;;;4966305;28;20497;-78
2023/10/16 13:37:18;;;;;;;4.70;4.30;;;29.00;47.60;;;;;;4970269;28;20429;-77
2023/10/16 13:39:46;;;;;;;4.43;3.83;;;29.20;47.20;;;;;;4970552;28;20441;-78
2023/10/16 13:42:15;;;;;;;3.70;3.40;;;29.20;46.70;;;;;;4969478;28;20457;-77
2023/10/16 13:44:46;;;;;;;3.83;3.50;;;29.20;46.50;;;;;;4984386;28;20470;-77
2023/10/16 13:47:14;;;;;;;3.87;3.57;;;28.90;46.50;;;;;;4985171;28;20438;-77
2023/10/16 13:49:44;;;;;;;3.47;3.17;;;28.60;46.60;;;;;;4970235;28;20478;-75
2023/10/16 13:52:13;;;;;;;4.17;3.77;;;28.30;47.10;;;;;;4975621;28;20450;-78
2023/10/16 13:54:41;;;;;;;3.97;3.67;;;28.00;47.50;;;;;;4968442;28;20495;-77
2023/10/16 13:57:09;;;;;;;3.70;3.40;;;27.80;48.30;;;;;;4970382;28;20533;-77
2023/10/16 13:59:39;;;;;;;3.60;3.30;;;27.60;48.20;;;;;;4975075;28;20451;-77
2023/10/16 14:02:07;;;;;;;5.40;3.80;;;27.40;48.80;;;;;;4972024;28;20455;-77
2023/10/16 14:04:36;;;;;;;3.70;3.40;;;27.30;49.20;;;;;;4966716;28;20543;-78
2023/10/16 14:07:08;;;;;;;4.03;3.40;;;27.10;49.30;;;;;;4963724;28;20886;-78
2023/10/16 14:09:36;;;;;;;5.83;3.97;;;27.00;49.50;;;;;;4968728;28;20478;-78
2023/10/16 14:12:06;;;;;;;4.23;3.57;;;26.90;49.60;;;;;;4962251;28;20833;-77
2023/10/16 14:14:34;;;;;;;3.47;3.17;;;26.70;49.70;;;;;;4961359;28;20512;-77
2023/10/16 14:17:03;;;;;;;3.30;3.00;;;26.40;49.90;;;;;;4963304;28;20472;-77
2023/10/16 14:19:32;;;;;;;3.53;3.23;;;26.20;50.40;;;;;;4971907;28;20503;-77
2023/10/16 14:22:06;;;;;;;2.80;2.60;;;25.90;51.00;;;;;;4965924;28;20957;-77
2023/10/16 14:24:36;;;;;;;3.80;3.07;;;25.70;51.40;;;;;;4971659;28;20454;-77
2023/10/16 14:27:05;;;;;;;3.07;2.87;;;25.50;51.60;;;;;;4969948;28;20513;-77
2023/10/16 14:29:35;;;;;;;3.30;3.00;;;25.30;52.00;;;;;;4957326;28;20452;-77
2023/10/16 14:32:03;;;;;;;4.50;3.40;;;25.20;52.40;;;;;;4962936;28;20423;-77